Terminal Aerodrome Forecast
Issued by NWS Twin Cities, MN

Home | Current Version | Previous Version | Graphics & Text | Print | Product List | Glossary On
Versions: 1 2 3 4 5 6 7 8 9 10 11 12 13 14 15 16 17 18 19 20 21 22 23 24 25
000
FTUS43 KMPX 251739
TAFSTC
TAF
KSTC 251739Z 2518/2618 10010KT P6SM -SHRA OVC100
     FM252000 13010KT P6SM OVC080
     FM252200 12007KT P6SM VCSH BKN100
     FM260600 16003KT P6SM BKN050
      TEMPO 2608/2612 4SM BR BKN012
     FM261200 23007KT P6SM SCT120=

USA.gov is the U.S. government's official web portal to all federal, state and local government web resources and services.